createdAt,value
2019-02-27T00:03:00.014Z,64.01
2019-02-27T00:06:23.291Z,63.24
2019-02-27T00:09:46.524Z,63.21
2019-02-27T00:13:09.662Z,63.71
2019-02-27T00:16:33.946Z,63.77
2019-02-27T00:19:57.056Z,63.22
2019-02-27T00:23:23.894Z,63.99
2019-02-27T00:26:45.126Z,64.32
2019-02-27T00:30:09.508Z,64.03
2019-02-27T00:33:34.419Z,64.45
2019-02-27T00:36:57.589Z,64.15
2019-02-27T00:40:21.070Z,63.66
2019-02-27T00:43:44.492Z,64.17
2019-02-27T00:47:07.591Z,64.33
2019-02-27T00:50:31.093Z,64.39
2019-02-27T00:53:55.911Z,64.34
2019-02-27T00:57:20.848Z,64.99
2019-02-27T01:00:44.324Z,64.58
2019-02-27T01:04:07.419Z,64.44
2019-02-27T01:07:30.541Z,63.54
2019-02-27T01:10:53.681Z,64.00
2019-02-27T01:14:16.789Z,63.76
2019-02-27T01:17:40.193Z,63.44
2019-02-27T01:21:03.300Z,64.21
2019-02-27T01:24:26.380Z,63.67
2019-02-27T01:27:49.490Z,64.14
2019-02-27T01:31:12.706Z,63.82
2019-02-27T01:34:35.821Z,64.52
2019-02-27T01:37:59.226Z,65.20
2019-02-27T01:41:24.568Z,64.79
2019-02-27T01:44:47.419Z,65.05
2019-02-27T01:48:10.503Z,65.20
2019-02-27T01:51:33.590Z,65.97
2019-02-27T01:54:56.699Z,65.31
2019-02-27T01:58:19.827Z,65.62
2019-02-27T02:01:42.903Z,65.60
2019-02-27T02:05:06.164Z,66.35
2019-02-27T02:08:30.024Z,66.11
2019-02-27T02:11:53.228Z,66.00
2019-02-27T02:16:20.628Z,65.69
2019-02-27T02:20:37.621Z,65.53
2019-02-27T02:24:42.360Z,66.30
2019-02-27T02:28:54.966Z,66.07
2019-02-27T02:33:10.770Z,66.25
2019-02-27T02:37:18.291Z,65.70
2019-02-27T02:41:47.959Z,65.44
2019-02-27T02:45:51.818Z,65.62
2019-02-27T02:50:17.860Z,66.08
2019-02-27T02:54:37.517Z,66.29
2019-02-27T02:58:51.660Z,65.96
2019-02-27T03:03:04.433Z,66.08
2019-02-27T03:07:21.629Z,66.04
2019-02-27T03:11:22.843Z,66.31
2019-02-27T03:15:40.930Z,66.56
2019-02-27T03:19:50.331Z,66.26
2019-02-27T03:23:52.042Z,66.29
2019-02-27T03:28:21.268Z,65.83
2019-02-27T03:32:41.174Z,66.13
2019-02-27T03:36:48.269Z,66.21
2019-02-27T03:40:45.051Z,66.43
2019-02-27T03:44:57.915Z,66.48
2019-02-27T03:49:24.287Z,66.48
2019-02-27T03:53:32.480Z,66.53
2019-02-27T03:57:34.412Z,66.64
2019-02-27T04:01:18.700Z,66.58
2019-02-27T04:05:48.912Z,66.65
2019-02-27T04:09:12.065Z,67.07
2019-02-27T04:12:35.134Z,67.18
2019-02-27T04:15:58.586Z,66.54
2019-02-27T04:19:21.804Z,66.28
2019-02-27T04:22:44.939Z,66.66
2019-02-27T04:26:08.014Z,66.90
2019-02-27T04:29:31.118Z,67.03
2019-02-27T04:32:54.237Z,66.89
2019-02-27T04:36:17.615Z,66.77
2019-02-27T04:39:40.765Z,67.67
2019-02-27T04:43:03.976Z,67.43
2019-02-27T04:46:27.083Z,67.30
2019-02-27T04:49:50.183Z,66.53
2019-02-27T04:53:13.291Z,66.43
2019-02-27T04:56:36.680Z,66.84
2019-02-27T05:00:00.150Z,64.37
2019-02-27T05:03:25.807Z,65.91
2019-02-27T05:06:48.700Z,65.00
2019-02-27T05:10:11.857Z,64.57
2019-02-27T05:13:34.959Z,65.03
2019-02-27T05:16:59.619Z,64.55
2019-02-27T05:20:22.880Z,64.56
2019-02-27T05:23:46.669Z,65.13
2019-02-27T05:27:09.799Z,65.92
2019-02-27T05:30:32.857Z,66.52
2019-02-27T05:33:56.291Z,65.76
2019-02-27T05:37:19.352Z,66.53
2019-02-27T05:40:42.496Z,67.34
2019-02-27T05:44:06.847Z,67.36
2019-02-27T05:47:29.931Z,67.97
2019-02-27T05:50:53.140Z,67.35
2019-02-27T05:54:16.551Z,66.73
2019-02-27T05:57:39.660Z,67.75
2019-02-27T06:01:05.037Z,67.81
2019-02-27T06:04:29.664Z,67.56
2019-02-27T06:07:52.779Z,67.78
2019-02-27T06:11:27.089Z,67.40
2019-02-27T06:14:54.977Z,69.00
2019-02-27T06:18:22.509Z,66.52
2019-02-27T06:21:43.756Z,65.55
2019-02-27T06:25:32.331Z,65.70
2019-02-27T06:29:34.470Z,67.69
2019-02-27T06:33:39.142Z,68.22
2019-02-27T06:51:23.667Z,67.30
2019-02-27T06:59:33.587Z,65.16
2019-02-27T07:03:52.184Z,67.53
2019-02-27T07:08:37.975Z,65.67
2019-02-27T07:12:39.882Z,64.88
2019-02-27T07:17:12.974Z,63.62
2019-02-27T07:27:16.937Z,59.20
2019-02-27T07:31:52.101Z,57.69
2019-02-27T07:36:03.314Z,57.76
2019-02-27T07:48:56.544Z,55.36
2019-02-27T07:53:06.276Z,54.24
2019-02-27T07:57:36.037Z,53.14
2019-02-27T08:11:35.751Z,50.76
2019-02-27T08:15:29.251Z,49.82
2019-02-27T08:19:52.423Z,48.76
2019-02-27T08:24:51.943Z,47.29
2019-02-27T08:29:16.828Z,47.20
2019-02-27T08:34:13.169Z,46.25
2019-02-27T08:38:23.534Z,46.40
2019-02-27T08:47:33.671Z,45.47
2019-02-27T08:51:12.902Z,44.78
2019-02-27T08:56:18.161Z,44.24
2019-02-27T09:10:46.885Z,42.69
2019-02-27T09:20:16.890Z,41.90
2019-02-27T09:40:38.170Z,38.14
2019-02-27T09:49:50.438Z,36.05
2019-02-27T09:54:55.521Z,35.57
2019-02-27T10:00:09.255Z,33.60
2019-02-27T10:04:10.306Z,28.00
2019-02-27T10:13:25.168Z,23.42
2019-02-27T10:18:19.025Z,21.24
2019-02-27T10:28:04.839Z,20.14
2019-02-27T10:42:50.248Z,17.54
2019-02-27T11:02:03.912Z,17.37
2019-02-27T11:11:02.446Z,17.39
2019-02-27T11:20:06.412Z,17.58
2019-02-27T11:33:56.597Z,15.10
2019-02-27T11:38:06.307Z,14.41
2019-02-27T11:47:24.901Z,14.34
2019-02-27T11:56:20.244Z,13.59
2019-02-27T12:15:52.220Z,14.85
2019-02-27T12:19:57.983Z,14.30
2019-02-27T12:24:50.313Z,15.33
2019-02-27T12:29:54.378Z,14.31
2019-02-27T12:33:53.599Z,14.03
2019-02-27T12:38:24.651Z,14.14
2019-02-27T12:53:33.325Z,12.59
2019-02-27T12:57:25.716Z,10.96
2019-02-27T13:17:00.224Z,11.29
2019-02-27T13:21:48.346Z,12.05
2019-02-27T13:31:27.742Z,11.03
2019-02-27T13:35:42.475Z,9.12
2019-02-27T14:05:15.785Z,9.81
2019-02-27T14:09:25.194Z,9.62
2019-02-27T14:13:26.493Z,9.52
2019-02-27T14:17:47.422Z,8.88
2019-02-27T14:21:42.777Z,8.99
2019-02-27T14:25:49.466Z,8.30
2019-02-27T14:29:54.719Z,9.16
2019-02-27T14:33:51.152Z,9.86
2019-02-27T14:38:01.768Z,9.24
2019-02-27T14:42:09.687Z,9.99
2019-02-27T14:50:45.869Z,9.43
2019-02-27T14:55:21.241Z,11.52
2019-02-27T15:00:25.462Z,10.06
2019-02-27T15:09:47.808Z,11.36
2019-02-27T15:14:03.895Z,11.99
2019-02-27T15:18:27.966Z,13.13
2019-02-27T15:23:25.098Z,12.20
2019-02-27T15:27:46.836Z,12.43
2019-02-27T15:36:48.111Z,12.98
2019-02-27T15:41:15.161Z,11.37
2019-02-27T15:45:09.055Z,13.62
2019-02-27T16:15:05.745Z,12.39
2019-02-27T16:29:48.547Z,18.03
2019-02-27T16:48:46.826Z,22.04
2019-02-27T16:53:38.360Z,21.83
2019-02-27T17:02:52.065Z,24.64
2019-02-27T17:07:09.284Z,24.07
2019-02-27T17:12:25.375Z,25.96
2019-02-27T17:16:23.259Z,27.40
2019-02-27T17:34:16.569Z,32.01
2019-02-27T17:47:54.874Z,33.84
2019-02-27T17:51:33.917Z,33.82
2019-02-27T17:56:02.863Z,34.25
2019-02-27T18:00:17.699Z,33.79
2019-02-27T18:09:04.903Z,35.44
2019-02-27T18:12:55.905Z,35.14
2019-02-27T18:17:35.693Z,35.93
2019-02-27T18:21:16.909Z,36.31
2019-02-27T18:25:38.641Z,35.55
2019-02-27T18:29:43.748Z,35.88
2019-02-27T18:34:03.990Z,36.49
2019-02-27T18:38:44.066Z,36.73
2019-02-27T18:43:35.090Z,36.80
2019-02-27T18:47:58.414Z,37.41
2019-02-27T18:52:21.343Z,37.20
2019-02-27T19:00:46.545Z,38.69
2019-02-27T19:19:27.233Z,39.93
2019-02-27T19:24:03.586Z,40.49
2019-02-27T19:28:44.881Z,41.03
2019-02-27T19:38:14.427Z,41.92
2019-02-27T19:51:10.612Z,42.76
2019-02-27T19:55:54.299Z,43.45
2019-02-27T20:15:25.699Z,44.46
2019-02-27T20:19:48.375Z,44.67
2019-02-27T20:24:43.121Z,44.04
2019-02-27T20:28:41.366Z,45.41
2019-02-27T20:32:28.396Z,45.84
2019-02-27T20:36:42.648Z,47.53
2019-02-27T20:40:48.825Z,47.28
2019-02-27T20:50:52.096Z,48.02
2019-02-27T20:54:47.882Z,47.67
2019-02-27T20:58:50.900Z,48.68
2019-02-27T21:02:42.759Z,47.89
2019-02-27T21:10:37.547Z,48.31
2019-02-27T21:14:29.023Z,49.19
2019-02-27T21:18:53.872Z,49.74
2019-02-27T21:27:39.843Z,49.19
2019-02-27T21:32:18.590Z,50.47
2019-02-27T21:42:03.592Z,51.10
2019-02-27T21:47:22.983Z,52.65
2019-02-27T21:51:21.440Z,52.01
2019-02-27T21:55:18.958Z,52.47
2019-02-27T22:05:01.080Z,54.21
2019-02-27T22:09:44.537Z,54.30
2019-02-27T22:14:01.138Z,54.99
2019-02-27T22:18:01.367Z,54.89
2019-02-27T22:22:41.564Z,54.55
2019-02-27T22:27:12.744Z,54.50
2019-02-27T22:36:43.990Z,54.31
2019-02-27T22:45:19.252Z,55.30
2019-02-27T22:49:42.020Z,54.17
2019-02-27T23:14:19.756Z,55.54
2019-02-27T23:19:13.806Z,55.17
2019-02-27T23:23:44.049Z,54.32
2019-02-27T23:33:11.033Z,55.88
2019-02-27T23:37:24.242Z,55.08
2019-02-27T23:41:32.493Z,56.30
2019-02-27T23:45:45.259Z,56.62
